Time,TemperatureF,DewpointF,PressureIn,WindDirection,WindDirectionDegrees,WindSpeedMPH,WindSpeedGustMPH,Humidity,HourlyPrecipIn,Conditions,Clouds,dailyrainin,SoftwareType,DateUTC
2013-02-03 00:09:00,39.2,38.0,30.16,East,98,0.0,0.0,94,0.00,,,0.00,weatherlink.com 1.10,2013-02-03 05:09:00,
2013-02-03 00:24:00,39.2,38.0,30.16,East,98,0.0,0.0,94,0.00,,,0.00,weatherlink.com 1.10,2013-02-03 05:24:00,
2013-02-03 00:39:00,39.3,38.0,30.16,East,98,0.0,0.0,94,0.00,,,0.00,weatherlink.com 1.10,2013-02-03 05:39:00,
2013-02-03 00:54:00,39.4,38.0,30.16,East,98,0.0,0.0,94,0.00,,,0.00,weatherlink.com 1.10,2013-02-03 05:54:00,
2013-02-03 01:09:00,39.1,38.0,30.15,East,98,0.0,0.0,94,0.00,,,0.00,weatherlink.com 1.10,2013-02-03 06:09:00,
2013-02-03 01:24:00,38.9,37.0,30.15,East,98,0.0,0.0,94,0.00,,,0.00,weatherlink.com 1.10,2013-02-03 06:24:00,
2013-02-03 01:39:00,38.4,37.0,30.14,East,98,0.0,0.0,94,0.00,,,0.00,weatherlink.com 1.10,2013-02-03 06:39:00,
2013-02-03 01:54:00,38.3,37.0,30.14,East,98,0.0,0.0,95,0.00,,,0.00,weatherlink.com 1.10,2013-02-03 06:54:00,
2013-02-03 02:09:00,38.4,37.0,30.13,East,98,0.0,0.0,95,0.00,,,0.00,weatherlink.com 1.10,2013-02-03 07:09:00,
2013-02-03 02:24:00,38.8,38.0,30.13,East,98,0.0,0.0,95,0.00,,,0.00,weatherlink.com 1.10,2013-02-03 07:24:00,
2013-02-03 02:39:00,38.6,37.0,30.12,East,98,0.0,0.0,95,0.00,,,0.00,weatherlink.com 1.10,2013-02-03 07:39:00,
2013-02-03 02:54:00,38.3,37.0,30.11,East,98,0.0,0.0,95,0.00,,,0.00,weatherlink.com 1.10,2013-02-03 07:54:00,
2013-02-03 03:09:00,37.6,36.0,30.12,East,98,0.0,0.0,95,0.00,,,0.00,weatherlink.com 1.10,2013-02-03 08:09:00,
2013-02-03 03:24:00,37.8,37.0,30.12,East,98,0.0,1.0,95,0.00,,,0.00,weatherlink.com 1.10,2013-02-03 08:24:00,
2013-02-03 03:39:00,37.4,36.0,30.13,East,98,0.0,0.0,95,0.00,,,0.00,weatherlink.com 1.10,2013-02-03 08:39:00,
2013-02-03 03:54:00,37.2,36.0,30.12,East,98,0.0,0.0,95,0.00,,,0.00,weatherlink.com 1.10,2013-02-03 08:54:00,
2013-02-03 04:09:00,37.1,36.0,30.12,East,98,0.0,0.0,95,0.00,,,0.00,weatherlink.com 1.10,2013-02-03 09:09:00,
2013-02-03 04:24:00,37.1,36.0,30.12,East,98,0.0,1.0,95,0.00,,,0.00,weatherlink.com 1.10,2013-02-03 09:24:00,
2013-02-03 04:39:00,36.8,36.0,30.13,East,98,0.0,2.0,95,0.00,,,0.00,weatherlink.com 1.10,2013-02-03 09:39:00,
2013-02-03 04:54:00,36.7,35.0,30.13,East,98,0.0,0.0,95,0.00,,,0.00,weatherlink.com 1.10,2013-02-03 09:54:00,
2013-02-03 05:09:00,36.8,36.0,30.13,East,98,0.0,0.0,95,0.00,,,0.00,weatherlink.com 1.10,2013-02-03 10:09:00,
2013-02-03 05:24:00,37.0,36.0,30.14,East,98,0.0,2.0,95,0.00,,,0.00,weatherlink.com 1.10,2013-02-03 10:24:00,
2013-02-03 05:39:00,37.0,36.0,30.14,East,98,0.0,1.0,95,0.00,,,0.00,weatherlink.com 1.10,2013-02-03 10:39:00,
2013-02-03 05:54:00,37.1,36.0,30.14,East,98,0.0,1.0,95,0.00,,,0.00,weatherlink.com 1.10,2013-02-03 10:54:00,
2013-02-03 06:09:00,37.2,36.0,30.15,East,98,1.0,2.0,95,0.00,,,0.00,weatherlink.com 1.10,2013-02-03 11:09:00,
2013-02-03 06:24:00,37.1,36.0,30.15,East,98,0.0,2.0,95,0.00,,,0.00,weatherlink.com 1.10,2013-02-03 11:24:00,
2013-02-03 06:39:00,37.3,36.0,30.15,East,98,0.0,2.0,95,0.00,,,0.00,weatherlink.com 1.10,2013-02-03 11:39:00,
2013-02-03 06:55:00,37.9,37.0,30.15,WSW,246,0.0,5.0,96,0.00,,,0.00,weatherlink.com 1.10,2013-02-03 11:55:00,
2013-02-03 07:10:00,40.1,39.0,30.16,West,278,5.0,7.0,96,0.00,,,0.00,weatherlink.com 1.10,2013-02-03 12:10:00,
2013-02-03 07:25:00,41.3,40.0,30.16,West,276,2.0,7.0,96,0.00,,,0.00,weatherlink.com 1.10,2013-02-03 12:25:00,
2013-02-03 07:40:00,42.0,41.0,30.17,West,260,2.0,7.0,96,0.00,,,0.00,weatherlink.com 1.10,2013-02-03 12:40:00,
2013-02-03 07:55:00,44.7,44.0,30.18,NW,304,2.0,11.0,96,0.00,,,0.00,weatherlink.com 1.10,2013-02-03 12:55:00,
2013-02-03 08:10:00,46.7,46.0,30.18,NNW,332,3.0,10.0,96,0.00,,,0.00,weatherlink.com 1.10,2013-02-03 13:10:00,
2013-02-03 08:25:00,48.3,46.0,30.18,NW,315,5.0,11.0,93,0.00,,,0.00,weatherlink.com 1.10,2013-02-03 13:25:00,
2013-02-03 08:40:00,50.6,46.0,30.18,NW,326,5.0,9.0,85,0.00,,,0.00,weatherlink.com 1.10,2013-02-03 13:40:00,
2013-02-03 08:55:00,51.8,46.0,30.18,NW,325,4.0,12.0,80,0.00,,,0.00,weatherlink.com 1.10,2013-02-03 13:55:00,
2013-02-03 09:10:00,52.8,46.0,30.19,NW,304,10.0,15.0,77,0.00,,,0.00,weatherlink.com 1.10,2013-02-03 14:10:00,
2013-02-03 09:25:00,54.0,46.0,30.19,NNW,330,10.0,15.0,73,0.00,,,0.00,weatherlink.com 1.10,2013-02-03 14:25:00,
2013-02-03 09:40:00,54.9,45.0,30.19,NE,40,4.0,14.0,69,0.00,,,0.00,weatherlink.com 1.10,2013-02-03 14:40:00,
2013-02-03 09:55:00,56.2,44.0,30.19,North,360,1.0,13.0,65,0.00,,,0.00,weatherlink.com 1.10,2013-02-03 14:55:00,
2013-02-03 10:10:00,58.1,44.0,30.19,NNW,333,5.0,10.0,60,0.00,,,0.00,weatherlink.com 1.10,2013-02-03 15:10:00,
2013-02-03 10:25:00,59.1,43.0,30.18,North,355,5.0,14.0,56,0.00,,,0.00,weatherlink.com 1.10,2013-02-03 15:25:00,
2013-02-03 10:40:00,59.4,43.0,30.18,WNW,292,3.0,11.0,55,0.00,,,0.00,weatherlink.com 1.10,2013-02-03 15:40:00,
2013-02-03 10:55:00,60.7,43.0,30.18,North,355,6.0,9.0,52,0.00,,,0.00,weatherlink.com 1.10,2013-02-03 15:55:00,
2013-02-03 11:11:00,61.6,43.0,30.17,North,5,5.0,10.0,50,0.00,,,0.00,weatherlink.com 1.10,2013-02-03 16:11:00,
2013-02-03 11:26:00,62.6,41.0,30.17,NW,307,7.0,11.0,45,0.00,,,0.00,weatherlink.com 1.10,2013-02-03 16:26:00,
2013-02-03 11:41:00,63.1,42.0,30.16,NNW,344,4.0,9.0,47,0.00,,,0.00,weatherlink.com 1.10,2013-02-03 16:41:00,
2013-02-03 11:56:00,64.4,41.0,30.15,WNW,302,8.0,15.0,43,0.00,,,0.00,weatherlink.com 1.10,2013-02-03 16:56:00,
2013-02-03 12:11:00,64.3,41.0,30.14,WNW,302,7.0,10.0,42,0.00,,,0.00,weatherlink.com 1.10,2013-02-03 17:11:00,
2013-02-03 12:26:00,65.0,42.0,30.13,NW,315,3.0,13.0,43,0.00,,,0.00,weatherlink.com 1.10,2013-02-03 17:26:00,
2013-02-03 12:41:00,65.6,41.0,30.13,WNW,286,2.0,12.0,40,0.00,,,0.00,weatherlink.com 1.10,2013-02-03 17:41:00,
2013-02-03 12:56:00,66.1,40.0,30.11,SW,230,6.0,10.0,39,0.00,,,0.00,weatherlink.com 1.10,2013-02-03 17:56:00,
2013-02-03 13:11:00,67.2,41.0,30.10,SW,236,8.0,10.0,38,0.00,,,0.00,weatherlink.com 1.10,2013-02-03 18:11:00,
2013-02-03 13:26:00,67.8,40.0,30.09,WNW,301,1.0,12.0,36,0.00,,,0.00,weatherlink.com 1.10,2013-02-03 18:26:00,
2013-02-03 13:41:00,68.1,38.0,30.08,NW,325,4.0,13.0,33,0.00,,,0.00,weatherlink.com 1.10,2013-02-03 18:41:00,
2013-02-03 13:56:00,67.9,38.0,30.08,NW,318,5.0,13.0,33,0.00,,,0.00,weatherlink.com 1.10,2013-02-03 18:56:00,
2013-02-03 14:11:00,68.5,39.0,30.07,West,264,7.0,10.0,34,0.00,,,0.00,weatherlink.com 1.10,2013-02-03 19:11:00,
2013-02-03 14:26:00,68.9,39.0,30.06,West,279,7.0,10.0,33,0.00,,,0.00,weatherlink.com 1.10,2013-02-03 19:26:00,
2013-02-03 14:41:00,69.0,36.0,30.05,West,263,5.0,10.0,30,0.00,,,0.00,weatherlink.com 1.10,2013-02-03 19:41:00,
2013-02-03 14:56:00,69.2,36.0,30.05,WNW,290,4.0,13.0,29,0.00,,,0.00,weatherlink.com 1.10,2013-02-03 19:56:00,
2013-02-03 15:11:00,69.3,34.0,30.05,WNW,284,7.0,14.0,27,0.00,,,0.00,weatherlink.com 1.10,2013-02-03 20:11:00,
2013-02-03 15:26:00,69.4,34.0,30.05,NNW,327,0.0,11.0,27,0.00,,,0.00,weatherlink.com 1.10,2013-02-03 20:26:00,
2013-02-03 15:41:00,69.8,34.0,30.04,West,281,6.0,13.0,27,0.00,,,0.00,weatherlink.com 1.10,2013-02-03 20:41:00,
2013-02-03 15:56:00,70.0,35.0,30.04,WNW,292,7.0,15.0,28,0.00,,,0.00,weatherlink.com 1.10,2013-02-03 20:56:00,
2013-02-03 16:11:00,69.7,31.0,30.04,WSW,242,1.0,11.0,24,0.00,,,0.00,weatherlink.com 1.10,2013-02-03 21:11:00,
2013-02-03 16:26:00,69.7,33.0,30.05,WNW,298,3.0,12.0,26,0.00,,,0.00,weatherlink.com 1.10,2013-02-03 21:26:00,
2013-02-03 16:41:00,68.9,33.0,30.05,WNW,288,4.0,13.0,27,0.00,,,0.00,weatherlink.com 1.10,2013-02-03 21:41:00,
2013-02-03 16:56:00,68.8,31.0,30.04,WSW,252,9.0,13.0,25,0.00,,,0.00,weatherlink.com 1.10,2013-02-03 21:56:00,
2013-02-03 17:11:00,66.7,32.0,30.04,SW,229,1.0,9.0,28,0.00,,,0.00,weatherlink.com 1.10,2013-02-03 22:11:00,
2013-02-03 17:26:00,64.4,32.0,30.04,WSW,258,4.0,9.0,30,0.00,,,0.00,weatherlink.com 1.10,2013-02-03 22:26:00,
2013-02-03 17:41:00,62.5,31.0,30.05,West,275,1.0,12.0,31,0.00,,,0.00,weatherlink.com 1.10,2013-02-03 22:41:00,
2013-02-03 17:56:00,60.4,34.0,30.05,West,266,1.0,5.0,38,0.00,,,0.00,weatherlink.com 1.10,2013-02-03 22:56:00,
2013-02-03 18:11:00,57.5,34.0,30.05,West,266,0.0,2.0,42,0.00,,,0.00,weatherlink.com 1.10,2013-02-03 23:11:00,
2013-02-03 18:26:00,54.7,35.0,30.06,WSW,251,0.0,5.0,47,0.00,,,0.00,weatherlink.com 1.10,2013-02-03 23:26:00,
2013-02-03 18:41:00,52.8,35.0,30.06,WSW,251,0.0,1.0,51,0.00,,,0.00,weatherlink.com 1.10,2013-02-03 23:41:00,
2013-02-03 18:56:00,51.3,37.0,30.06,WSW,251,0.0,2.0,59,0.00,,,0.00,weatherlink.com 1.10,2013-02-03 23:56:00,
2013-02-03 19:11:00,49.9,38.0,30.07,WSW,251,0.0,1.0,65,0.00,,,0.00,weatherlink.com 1.10,2013-02-04 00:11:00,
2013-02-03 19:26:00,48.6,37.0,30.07,WSW,251,0.0,0.0,64,0.00,,,0.00,weatherlink.com 1.10,2013-02-04 00:26:00,
2013-02-03 19:41:00,47.3,37.0,30.07,WSW,251,0.0,0.0,67,0.00,,,0.00,weatherlink.com 1.10,2013-02-04 00:41:00,
2013-02-03 19:56:00,46.3,38.0,30.07,WSW,251,0.0,0.0,72,0.00,,,0.00,weatherlink.com 1.10,2013-02-04 00:56:00,
2013-02-03 20:11:00,44.9,37.0,30.08,WSW,251,0.0,0.0,74,0.00,,,0.00,weatherlink.com 1.10,2013-02-04 01:11:00,
2013-02-03 20:26:00,44.5,38.0,30.08,WSW,251,0.0,0.0,77,0.00,,,0.00,weatherlink.com 1.10,2013-02-04 01:26:00,
2013-02-03 20:41:00,43.4,37.0,30.08,WSW,251,0.0,0.0,78,0.00,,,0.00,weatherlink.com 1.10,2013-02-04 01:41:00,
2013-02-03 20:56:00,42.8,37.0,30.09,WSW,251,0.0,0.0,79,0.00,,,0.00,weatherlink.com 1.10,2013-02-04 01:56:00,
2013-02-03 21:11:00,42.0,37.0,30.09,WSW,251,0.0,0.0,81,0.00,,,0.00,weatherlink.com 1.10,2013-02-04 02:11:00,
2013-02-03 21:26:00,41.8,37.0,30.10,WSW,251,0.0,0.0,83,0.00,,,0.00,weatherlink.com 1.10,2013-02-04 02:26:00,
2013-02-03 21:41:00,41.5,37.0,30.10,WSW,251,0.0,0.0,84,0.00,,,0.00,weatherlink.com 1.10,2013-02-04 02:41:00,
2013-02-03 21:57:00,41.0,37.0,30.10,WSW,251,0.0,0.0,85,0.00,,,0.00,weatherlink.com 1.10,2013-02-04 02:57:00,
2013-02-03 22:11:00,41.3,37.0,30.10,WSW,251,0.0,0.0,86,0.00,,,0.00,weatherlink.com 1.10,2013-02-04 03:11:00,
2013-02-03 22:26:00,40.4,37.0,30.11,WSW,251,0.0,0.0,86,0.00,,,0.00,weatherlink.com 1.10,2013-02-04 03:26:00,
2013-02-03 22:41:00,39.8,36.0,30.11,WSW,251,2.0,3.0,86,0.00,,,0.00,weatherlink.com 1.10,2013-02-04 03:41:00,
2013-02-03 22:56:00,39.6,36.0,30.12,WSW,251,0.0,0.0,88,0.00,,,0.00,weatherlink.com 1.10,2013-02-04 03:56:00,
2013-02-03 23:11:00,39.7,37.0,30.12,WSW,251,0.0,2.0,88,0.00,,,0.00,weatherlink.com 1.10,2013-02-04 04:11:00,
2013-02-03 23:27:00,39.6,37.0,30.12,WSW,251,0.0,3.0,89,0.00,,,0.00,weatherlink.com 1.10,2013-02-04 04:27:00,
2013-02-03 23:42:00,39.8,37.0,30.11,WSW,251,0.0,0.0,89,0.00,,,0.00,weatherlink.com 1.10,2013-02-04 04:42:00,
2013-02-03 23:57:00,40.0,37.0,30.11,WSW,251,0.0,3.0,88,0.00,,,0.00,weatherlink.com 1.10,2013-02-04 04:57:00,